createdAt,value
2019-02-25T00:05:08.397Z,38.60
2019-02-25T00:15:13.850Z,44.50
2019-02-25T00:25:19.307Z,40.53
2019-02-25T00:35:24.743Z,40.43
2019-02-25T00:45:30.067Z,36.43
2019-02-25T00:55:35.338Z,38.23
2019-02-25T01:05:41.834Z,37.03
2019-02-25T01:15:47.274Z,42.87
2019-02-25T01:25:52.595Z,35.73
2019-02-25T01:35:58.511Z,36.73
2019-02-25T01:46:03.962Z,38.63
2019-02-25T01:56:09.555Z,37.13
2019-02-25T02:06:15.321Z,37.87
2019-02-25T02:16:20.758Z,38.07
2019-02-25T02:26:26.228Z,35.13
2019-02-25T02:36:31.579Z,34.33
2019-02-25T02:47:08.933Z,33.93
2019-02-25T02:57:14.309Z,39.97
2019-02-25T03:07:19.895Z,29.10
2019-02-25T03:17:25.353Z,32.93
2019-02-25T03:27:30.874Z,35.03
2019-02-25T03:37:36.384Z,34.00
2019-02-25T03:47:42.039Z,31.17
2019-02-25T03:57:47.695Z,37.23
2019-02-25T04:07:53.123Z,31.30
2019-02-25T04:17:59.153Z,30.00
2019-02-25T04:28:04.676Z,33.50
2019-02-25T04:38:10.094Z,31.57
2019-02-25T04:48:15.565Z,28.97
2019-02-25T04:58:20.995Z,31.63
2019-02-25T05:08:26.391Z,30.33
2019-02-25T05:18:31.726Z,33.70
2019-02-25T05:28:37.088Z,34.17
2019-02-25T05:38:42.876Z,31.63
2019-02-25T05:48:48.291Z,31.63
2019-02-25T05:58:53.753Z,29.53
2019-02-25T06:08:59.112Z,36.50
2019-02-25T06:19:04.530Z,27.23
2019-02-25T06:29:09.817Z,30.50
2019-02-25T06:39:15.142Z,30.77
2019-02-25T06:49:20.507Z,38.00
2019-02-25T06:59:25.970Z,36.30
2019-02-25T07:09:53.229Z,36.83
2019-02-25T07:20:16.292Z,36.80
2019-02-25T07:30:41.568Z,41.67
2019-02-25T07:41:11.610Z,35.30
2019-02-25T07:51:41.568Z,38.10
2019-02-25T08:02:10.301Z,36.97
2019-02-25T08:12:31.760Z,35.27
2019-02-25T08:22:44.034Z,33.93
2019-02-25T08:32:59.409Z,39.73
2019-02-25T08:43:18.079Z,35.83
2019-02-25T08:53:23.785Z,40.07
2019-02-25T09:03:29.474Z,42.30
2019-02-25T09:13:35.216Z,42.97
2019-02-25T09:23:40.629Z,37.60
2019-02-25T09:33:46.002Z,39.57
2019-02-25T09:43:51.537Z,39.83
2019-02-25T09:53:56.926Z,39.97
2019-02-25T10:04:02.339Z,39.23
2019-02-25T10:14:08.212Z,43.57
2019-02-25T10:24:13.789Z,44.77
2019-02-25T10:34:19.334Z,40.63
2019-02-25T10:44:24.824Z,41.67
2019-02-25T10:54:30.259Z,42.93
2019-02-25T11:04:35.848Z,44.47
2019-02-25T11:14:43.359Z,42.80
2019-02-25T11:24:49.835Z,42.30
2019-02-25T11:34:56.841Z,44.40
2019-02-25T11:45:04.375Z,43.07
2019-02-25T11:55:09.953Z,47.63
2019-02-25T12:05:16.822Z,48.07
2019-02-25T12:15:22.512Z,52.00
2019-02-25T12:25:28.094Z,56.47
2019-02-25T12:35:33.432Z,53.70
2019-02-25T12:45:38.850Z,50.77
2019-02-25T12:55:47.522Z,44.17
2019-02-25T13:05:53.190Z,48.53
2019-02-25T13:15:59.218Z,54.60
2019-02-25T13:26:07.528Z,51.87
2019-02-25T13:36:13.114Z,50.07
2019-02-25T13:46:18.643Z,51.73
2019-02-25T13:56:24.072Z,50.43
2019-02-25T14:06:29.605Z,55.17
2019-02-25T14:16:34.889Z,57.33
2019-02-25T14:26:41.170Z,59.13
2019-02-25T14:36:48.362Z,60.63
2019-02-25T14:46:53.597Z,68.53
2019-02-25T14:56:59.107Z,72.10
2019-02-25T15:07:06.450Z,65.90
2019-02-25T15:17:12.799Z,76.60
2019-02-25T15:27:18.755Z,76.23
2019-02-25T15:37:24.197Z,83.50
2019-02-25T15:47:29.553Z,92.40
2019-02-25T15:57:35.846Z,89.33
2019-02-25T16:07:42.200Z,96.40
2019-02-25T16:17:51.343Z,93.23
2019-02-25T16:27:55.646Z,99.00
2019-02-25T16:38:02.771Z,98.83
2019-02-25T16:48:08.534Z,109.60
2019-02-25T16:58:14.020Z,101.63
2019-02-25T17:08:20.811Z,101.20
2019-02-25T17:18:26.339Z,78.30
2019-02-25T17:28:32.111Z,91.13
2019-02-25T17:38:38.025Z,95.70
2019-02-25T17:48:45.930Z,101.47
2019-02-25T17:58:51.012Z,108.57
2019-02-25T18:08:57.692Z,113.27
2019-02-25T18:19:03.776Z,106.70
2019-02-25T18:29:09.437Z,104.77
2019-02-25T18:39:16.336Z,100.93
2019-02-25T18:49:21.992Z,98.17
2019-02-25T18:59:27.950Z,104.47
2019-02-25T19:09:34.882Z,110.77
2019-02-25T19:19:42.577Z,106.63
2019-02-25T19:29:51.192Z,109.23
2019-02-25T19:39:57.162Z,104.23
2019-02-25T19:50:04.580Z,94.87
2019-02-25T20:00:17.831Z,93.43
2019-02-25T20:10:22.519Z,107.10
2019-02-25T20:20:36.083Z,107.90
2019-02-25T20:30:43.019Z,102.07
2019-02-25T20:40:51.216Z,101.07
2019-02-25T20:50:59.622Z,95.30
2019-02-25T21:01:07.240Z,106.83
2019-02-25T21:11:13.486Z,109.43
2019-02-25T21:21:19.439Z,109.43
2019-02-25T21:31:26.521Z,107.37
2019-02-25T21:41:32.641Z,111.67
2019-02-25T21:51:39.295Z,130.63
2019-02-25T22:01:45.688Z,117.63
2019-02-25T22:11:51.363Z,120.77
2019-02-25T22:21:58.084Z,108.13
2019-02-25T22:32:06.255Z,126.57
2019-02-25T22:42:12.213Z,120.93
2019-02-25T22:52:21.850Z,121.50
2019-02-25T23:02:28.047Z,113.73
2019-02-25T23:12:35.629Z,110.17
2019-02-25T23:22:41.247Z,103.93
2019-02-25T23:32:46.832Z,102.10
2019-02-25T23:42:52.552Z,108.47
2019-02-25T23:52:58.015Z,102.17
